Time,TemperatureF,DewpointF,PressureIn,WindDirection,WindDirectionDegrees,WindSpeedMPH,WindSpeedGustMPH,Humidity,HourlyPrecipIn,Conditions,Clouds,dailyrainin,SoftwareType,DateUTC
2013-06-19 00:00:00,60.3,52.3,29.77,East,86,0.0,0.0,75,0.00,,---,0.00,VWS V12.07,2013-06-19 04:00:00,
2013-06-19 00:04:00,60.3,52.3,29.77,East,86,0.0,0.0,75,0.00,,---,0.00,VWS V12.07,2013-06-19 04:04:00,
2013-06-19 00:07:00,60.3,52.3,29.77,East,86,0.0,0.0,75,0.00,,---,0.00,VWS V12.07,2013-06-19 04:07:00,
2013-06-19 00:12:00,60.3,52.3,29.77,NNE,16,0.0,0.0,75,0.00,,---,0.00,VWS V12.07,2013-06-19 04:12:00,
2013-06-19 00:15:00,60.1,52.1,29.77,NNE,16,0.0,0.0,75,0.00,,---,0.00,VWS V12.07,2013-06-19 04:15:00,
2013-06-19 00:23:00,60.1,52.1,29.77,NNE,16,0.0,0.0,75,0.00,,---,0.00,VWS V12.07,2013-06-19 04:23:00,
2013-06-19 00:29:00,60.1,52.1,29.77,NNE,16,0.0,0.0,75,0.00,,---,0.00,VWS V12.07,2013-06-19 04:29:00,
2013-06-19 00:35:00,59.9,52.0,29.77,NNE,16,0.0,0.0,75,0.00,,---,0.00,VWS V12.07,2013-06-19 04:35:00,
2013-06-19 00:41:00,60.1,52.1,29.77,NNE,16,0.0,0.0,75,0.00,,---,0.00,VWS V12.07,2013-06-19 04:41:00,
2013-06-19 00:47:00,60.1,52.1,29.77,NNE,16,0.0,0.0,75,0.00,,---,0.00,VWS V12.07,2013-06-19 04:47:00,
2013-06-19 00:54:00,59.9,52.0,29.77,NNE,16,0.0,0.0,75,0.04,,---,0.04,VWS V12.07,2013-06-19 04:54:00,
2013-06-19 00:57:00,59.7,51.8,29.77,NNE,16,0.0,0.0,75,0.04,,---,0.04,VWS V12.07,2013-06-19 04:57:00,
2013-06-19 01:03:00,59.7,51.8,29.77,NNE,16,0.0,0.0,75,0.04,,---,0.04,VWS V12.07,2013-06-19 05:03:00,
2013-06-19 01:09:00,59.7,52.2,29.77,NNE,18,0.0,0.0,76,0.04,,---,0.04,VWS V12.07,2013-06-19 05:09:00,
2013-06-19 01:15:00,59.7,52.2,29.77,NNW,332,0.0,0.0,76,0.04,,---,0.04,VWS V12.07,2013-06-19 05:15:00,
2013-06-19 01:21:00,59.7,52.2,29.77,NNW,343,0.0,0.0,76,0.04,,---,0.04,VWS V12.07,2013-06-19 05:21:00,
2013-06-19 01:27:00,59.7,52.2,29.77,NNW,343,0.0,0.0,76,0.04,,---,0.04,VWS V12.07,2013-06-19 05:27:00,
2013-06-19 01:33:00,59.5,52.0,29.77,NW,314,0.0,0.0,76,0.04,,---,0.04,VWS V12.07,2013-06-19 05:33:00,
2013-06-19 01:39:00,59.5,52.0,29.77,NW,312,0.0,0.0,76,0.04,,---,0.04,VWS V12.07,2013-06-19 05:39:00,
2013-06-19 01:45:00,59.4,51.8,29.77,North,6,0.0,0.0,76,0.04,,---,0.04,VWS V12.07,2013-06-19 05:45:00,
2013-06-19 01:51:00,59.4,51.8,29.77,NNW,338,0.0,0.0,76,0.04,,---,0.04,VWS V12.07,2013-06-19 05:51:00,
2013-06-19 01:57:00,59.4,51.8,29.77,NNW,338,0.0,0.0,76,0.04,,---,0.04,VWS V12.07,2013-06-19 05:57:00,
2013-06-19 02:04:00,59.2,51.6,29.77,NNW,338,0.0,0.0,76,0.00,,---,0.04,VWS V12.07,2013-06-19 06:04:00,
2013-06-19 02:10:00,59.0,51.5,29.77,NNW,338,0.0,0.0,76,0.00,,---,0.04,VWS V12.07,2013-06-19 06:10:00,
2013-06-19 02:17:00,58.8,51.3,29.77,NNW,338,0.0,0.0,76,0.00,,---,0.04,VWS V12.07,2013-06-19 06:17:00,
2013-06-19 02:24:00,58.6,51.1,29.77,NNW,338,0.0,0.0,76,0.00,,---,0.04,VWS V12.07,2013-06-19 06:24:00,
2013-06-19 02:30:00,58.3,50.8,29.77,NNW,338,0.0,0.0,76,0.00,,---,0.04,VWS V12.07,2013-06-19 06:30:00,
2013-06-19 02:37:00,58.1,50.6,29.77,NNW,338,0.0,0.0,76,0.00,,---,0.04,VWS V12.07,2013-06-19 06:37:00,
2013-06-19 02:44:00,58.3,51.1,29.77,NNW,338,0.0,0.0,77,0.00,,---,0.04,VWS V12.07,2013-06-19 06:44:00,
2013-06-19 02:50:00,58.3,51.1,29.77,NNW,338,0.0,0.0,77,0.00,,---,0.04,VWS V12.07,2013-06-19 06:50:00,
2013-06-19 02:57:00,58.1,50.9,29.77,NNW,338,0.0,0.0,77,0.00,,---,0.04,VWS V12.07,2013-06-19 06:57:00,
2013-06-19 03:03:00,58.1,50.9,29.77,NNW,338,0.0,0.0,77,0.00,,---,0.04,VWS V12.07,2013-06-19 07:03:00,
2013-06-19 03:09:00,58.3,51.1,29.77,NNW,338,0.0,0.0,77,0.00,,---,0.04,VWS V12.07,2013-06-19 07:09:00,
2013-06-19 03:14:00,58.3,51.1,29.77,NNW,338,0.0,0.0,77,0.00,,---,0.04,VWS V12.07,2013-06-19 07:14:00,
2013-06-19 03:20:00,58.3,51.1,29.77,NNW,338,0.0,0.0,77,0.00,,---,0.04,VWS V12.07,2013-06-19 07:20:00,
2013-06-19 03:25:00,58.1,50.9,29.74,NNW,338,0.0,0.0,77,0.00,,---,0.04,VWS V12.07,2013-06-19 07:25:00,
2013-06-19 03:31:00,58.3,51.1,29.74,NNW,338,0.0,0.0,77,0.00,,---,0.04,VWS V12.07,2013-06-19 07:31:00,
2013-06-19 03:37:00,58.5,51.3,29.74,NNW,338,0.0,0.0,77,0.00,,---,0.04,VWS V12.07,2013-06-19 07:37:00,
2013-06-19 03:43:00,58.5,51.3,29.74,NNW,338,0.0,0.0,77,0.00,,---,0.04,VWS V12.07,2013-06-19 07:43:00,
2013-06-19 03:50:00,58.5,51.3,29.74,NNW,338,0.0,0.0,77,0.00,,---,0.04,VWS V12.07,2013-06-19 07:50:00,
2013-06-19 03:55:00,58.3,51.1,29.77,NNW,338,0.0,0.0,77,0.00,,---,0.04,VWS V12.07,2013-06-19 07:55:00,
2013-06-19 04:01:00,58.3,51.1,29.77,NNW,338,0.0,0.0,77,0.00,,---,0.04,VWS V12.07,2013-06-19 08:01:00,
2013-06-19 04:07:00,58.3,51.1,29.77,NNW,338,0.0,0.0,77,0.00,,---,0.04,VWS V12.07,2013-06-19 08:07:00,
2013-06-19 04:13:00,58.3,51.1,29.77,NNW,338,0.0,0.0,77,0.00,,---,0.04,VWS V12.07,2013-06-19 08:13:00,
2013-06-19 04:19:00,58.1,50.9,29.77,NNW,338,0.0,0.0,77,0.00,,---,0.04,VWS V12.07,2013-06-19 08:19:00,
2013-06-19 04:25:00,58.1,50.9,29.77,NNW,338,0.0,0.0,77,0.00,,---,0.04,VWS V12.07,2013-06-19 08:25:00,
2013-06-19 04:31:00,57.9,50.8,29.77,NNW,338,0.0,0.0,77,0.00,,---,0.04,VWS V12.07,2013-06-19 08:31:00,
2013-06-19 04:37:00,57.7,50.6,29.77,NNW,338,0.0,0.0,77,0.00,,---,0.04,VWS V12.07,2013-06-19 08:37:00,
2013-06-19 04:43:00,57.7,50.6,29.77,NNW,338,0.0,0.0,77,0.00,,---,0.04,VWS V12.07,2013-06-19 08:43:00,
2013-06-19 04:49:00,57.9,50.8,29.77,NNW,338,0.0,0.0,77,0.00,,---,0.04,VWS V12.07,2013-06-19 08:49:00,
2013-06-19 04:55:00,57.7,50.6,29.77,NNW,338,0.0,0.0,77,0.00,,---,0.04,VWS V12.07,2013-06-19 08:55:00,
2013-06-19 05:01:00,57.9,50.8,29.77,NNW,338,0.0,0.0,77,0.00,,---,0.04,VWS V12.07,2013-06-19 09:01:00,
2013-06-19 05:07:00,57.9,51.1,29.77,NNW,338,0.0,0.0,78,0.00,,---,0.04,VWS V12.07,2013-06-19 09:07:00,
2013-06-19 05:13:00,57.9,51.1,29.77,NNW,338,0.0,0.0,78,0.00,,---,0.04,VWS V12.07,2013-06-19 09:13:00,
2013-06-19 05:19:00,58.1,51.3,29.77,NNW,338,0.0,0.0,78,0.00,,---,0.04,VWS V12.07,2013-06-19 09:19:00,
2013-06-19 05:25:00,57.9,50.8,29.74,NNW,338,0.0,0.0,77,0.00,,---,0.04,VWS V12.07,2013-06-19 09:25:00,
2013-06-19 05:31:00,57.9,50.8,29.74,NNW,338,0.0,0.0,77,0.00,,---,0.04,VWS V12.07,2013-06-19 09:31:00,
2013-06-19 05:37:00,57.9,50.8,29.74,NNW,338,0.0,0.0,77,0.00,,---,0.04,VWS V12.07,2013-06-19 09:37:00,
2013-06-19 05:42:00,57.9,50.8,29.77,NNW,338,0.0,0.0,77,0.00,,---,0.04,VWS V12.07,2013-06-19 09:42:00,
2013-06-19 05:48:00,57.9,50.8,29.77,NNW,338,0.0,0.0,77,0.00,,---,0.04,VWS V12.07,2013-06-19 09:48:00,
2013-06-19 05:54:00,57.7,50.6,29.77,NNW,338,0.0,0.0,77,0.00,,---,0.04,VWS V12.07,2013-06-19 09:54:00,
2013-06-19 06:00:00,57.7,50.6,29.77,NNW,338,0.0,0.0,77,0.00,,---,0.04,VWS V12.07,2013-06-19 10:00:00,
2013-06-19 06:07:00,57.7,50.9,29.77,NNW,338,0.0,0.0,78,0.00,,---,0.04,VWS V12.07,2013-06-19 10:07:00,
2013-06-19 06:13:00,57.9,51.1,29.77,NNW,338,0.0,0.0,78,0.00,,---,0.04,VWS V12.07,2013-06-19 10:13:00,
2013-06-19 06:19:00,58.1,51.3,29.77,NNW,338,0.0,0.0,78,0.00,,---,0.04,VWS V12.07,2013-06-19 10:19:00,
2013-06-19 06:25:00,58.3,51.5,29.77,NNW,338,0.0,0.0,78,0.00,,---,0.04,VWS V12.07,2013-06-19 10:25:00,
2013-06-19 06:31:00,58.5,51.6,29.77,NNW,338,0.0,0.0,78,0.00,,---,0.04,VWS V12.07,2013-06-19 10:31:00,
2013-06-19 06:37:00,58.8,52.3,29.77,NNW,338,0.0,0.0,79,0.00,,---,0.04,VWS V12.07,2013-06-19 10:37:00,
2013-06-19 06:43:00,59.2,52.7,29.77,NNW,338,0.0,0.0,79,0.00,,---,0.04,VWS V12.07,2013-06-19 10:43:00,
2013-06-19 06:49:00,59.4,52.9,29.77,NNW,338,0.0,0.0,79,0.00,,---,0.04,VWS V12.07,2013-06-19 10:49:00,
2013-06-19 06:55:00,59.7,53.2,29.77,WSW,243,0.0,3.6,79,0.00,,---,0.04,VWS V12.07,2013-06-19 10:55:00,
2013-06-19 07:01:00,59.9,53.4,29.77,WNW,286,0.0,0.0,79,0.00,,---,0.04,VWS V12.07,2013-06-19 11:01:00,
2013-06-19 07:07:00,60.1,53.6,29.77,WNW,299,0.0,0.0,79,0.00,,---,0.04,VWS V12.07,2013-06-19 11:07:00,
2013-06-19 07:13:00,60.4,53.9,29.77,WNW,299,0.0,0.0,79,0.00,,---,0.04,VWS V12.07,2013-06-19 11:13:00,
2013-06-19 07:19:00,61.0,54.4,29.77,WNW,291,0.0,0.0,79,0.00,,---,0.04,VWS V12.07,2013-06-19 11:19:00,
2013-06-19 07:25:00,61.9,55.3,29.80,WNW,291,0.0,0.0,79,0.00,,---,0.04,VWS V12.07,2013-06-19 11:25:00,
2013-06-19 07:31:00,62.6,56.0,29.80,SW,227,0.0,0.0,79,0.00,,---,0.04,VWS V12.07,2013-06-19 11:31:00,
2013-06-19 07:37:00,62.8,56.2,29.80,SW,229,0.0,0.0,79,0.00,,---,0.04,VWS V12.07,2013-06-19 11:37:00,
2013-06-19 07:44:00,63.1,56.2,29.80,SSW,192,0.0,0.0,78,0.00,,---,0.04,VWS V12.07,2013-06-19 11:44:00,
2013-06-19 07:50:00,63.5,56.5,29.80,SSW,192,0.0,0.0,78,0.00,,---,0.04,VWS V12.07,2013-06-19 11:50:00,
2013-06-19 07:57:00,63.3,56.0,29.80,West,272,0.0,0.0,77,0.00,,---,0.04,VWS V12.07,2013-06-19 11:57:00,
2013-06-19 08:04:00,63.1,55.5,29.80,NE,44,0.0,0.0,76,0.00,,---,0.04,VWS V12.07,2013-06-19 12:04:00,
2013-06-19 08:11:00,63.0,53.8,29.80,East,93,0.0,0.0,72,0.00,,---,0.04,VWS V12.07,2013-06-19 12:11:00,
2013-06-19 08:17:00,63.0,52.2,29.80,WSW,254,0.0,2.2,68,0.00,,---,0.04,VWS V12.07,2013-06-19 12:17:00,
2013-06-19 08:23:00,63.1,51.2,29.80,East,98,0.0,2.2,65,0.00,,---,0.04,VWS V12.07,2013-06-19 12:23:00,
2013-06-19 08:29:00,64.0,47.6,29.80,NE,38,0.0,0.0,55,0.00,,---,0.04,VWS V12.07,2013-06-19 12:29:00,
2013-06-19 08:35:00,64.4,44.3,29.80,ESE,105,0.0,0.0,48,0.00,,---,0.04,VWS V12.07,2013-06-19 12:35:00,
2013-06-19 08:41:00,64.9,43.1,29.83,East,101,0.0,0.0,45,0.00,,---,0.04,VWS V12.07,2013-06-19 12:41:00,
2013-06-19 08:48:00,65.3,42.2,29.83,ENE,74,0.0,0.0,43,0.00,,---,0.04,VWS V12.07,2013-06-19 12:48:00,
2013-06-19 08:54:00,65.1,40.2,29.83,South,186,0.0,0.0,40,0.00,,---,0.04,VWS V12.07,2013-06-19 12:54:00,
2013-06-19 09:00:00,64.8,36.5,29.83,East,80,0.0,0.0,35,0.00,,---,0.04,VWS V12.07,2013-06-19 13:00:00,
2013-06-19 09:06:00,65.3,36.2,29.83,East,79,0.0,0.0,34,0.00,,---,0.04,VWS V12.07,2013-06-19 13:06:00,
2013-06-19 09:13:00,66.2,36.3,29.83,East,79,0.0,0.0,33,0.00,,---,0.04,VWS V12.07,2013-06-19 13:13:00,
2013-06-19 09:19:00,67.3,34.0,29.83,East,86,0.0,0.0,29,0.00,,---,0.04,VWS V12.07,2013-06-19 13:19:00,
2013-06-19 09:25:00,68.0,33.7,29.83,East,87,0.0,0.0,28,0.00,,---,0.04,VWS V12.07,2013-06-19 13:25:00,
2013-06-19 09:31:00,68.7,32.5,29.83,NNW,332,0.0,0.0,26,0.00,,---,0.04,VWS V12.07,2013-06-19 13:31:00,
2013-06-19 09:38:00,69.4,33.1,29.83,SE,130,0.0,0.0,26,0.00,,---,0.04,VWS V12.07,2013-06-19 13:38:00,
2013-06-19 09:44:00,70.3,32.9,29.83,ESE,123,0.0,0.0,25,0.00,,---,0.04,VWS V12.07,2013-06-19 13:44:00,
2013-06-19 09:50:00,70.7,32.2,29.83,ENE,78,0.0,0.0,24,0.00,,---,0.04,VWS V12.07,2013-06-19 13:50:00,
2013-06-19 09:57:00,70.3,30.8,29.83,NNE,21,0.0,0.0,23,0.00,,---,0.04,VWS V12.07,2013-06-19 13:57:00,
2013-06-19 10:04:00,69.6,30.2,29.83,East,101,0.0,0.0,23,0.00,,---,0.04,VWS V12.07,2013-06-19 14:04:00,
2013-06-19 10:10:00,69.1,29.8,29.83,East,101,0.0,0.0,23,0.00,,---,0.04,VWS V12.07,2013-06-19 14:10:00,
2013-06-19 10:17:00,68.7,29.5,29.83,WNW,295,0.0,0.0,23,0.00,,---,0.04,VWS V12.07,2013-06-19 14:17:00,
2013-06-19 10:24:00,68.7,29.5,29.83,ENE,78,0.0,0.0,23,0.00,,---,0.04,VWS V12.07,2013-06-19 14:24:00,
2013-06-19 10:30:00,68.7,29.5,29.83,East,79,0.0,0.0,23,0.00,,---,0.04,VWS V12.07,2013-06-19 14:30:00,
2013-06-19 10:37:00,68.9,28.5,29.83,ENE,64,0.0,0.0,22,0.00,,---,0.04,VWS V12.07,2013-06-19 14:37:00,
2013-06-19 10:44:00,69.1,28.7,29.85,ENE,64,0.0,0.0,22,0.00,,---,0.04,VWS V12.07,2013-06-19 14:44:00,
2013-06-19 10:52:00,69.1,28.7,29.85,NE,45,0.0,0.0,22,0.00,,---,0.04,VWS V12.07,2013-06-19 14:52:00,
2013-06-19 10:59:00,69.3,28.8,29.85,ENE,77,0.0,0.0,22,0.00,,---,0.04,VWS V12.07,2013-06-19 14:59:00,
2013-06-19 11:05:00,69.4,29.0,29.85,East,82,0.0,0.0,22,0.00,,---,0.04,VWS V12.07,2013-06-19 15:05:00,
2013-06-19 11:12:00,69.8,29.3,29.85,ESE,103,0.0,0.0,22,0.00,,---,0.04,VWS V12.07,2013-06-19 15:12:00,
2013-06-19 11:19:00,70.0,25.9,29.85,East,83,0.0,0.0,19,0.00,,---,0.04,VWS V12.07,2013-06-19 15:19:00,
2013-06-19 11:25:00,70.0,29.4,29.85,East,81,0.0,0.0,22,0.00,,---,0.04,VWS V12.07,2013-06-19 15:25:00,
2013-06-19 11:33:00,70.2,26.0,29.85,ENE,62,0.0,0.0,19,0.00,,---,0.04,VWS V12.07,2013-06-19 15:33:00,
2013-06-19 11:41:00,70.5,29.9,29.85,NE,49,0.0,2.7,22,0.00,,---,0.04,VWS V12.07,2013-06-19 15:41:00,
2013-06-19 11:49:00,70.7,26.5,29.85,East,87,0.0,0.0,19,0.00,,---,0.04,VWS V12.07,2013-06-19 15:49:00,
2013-06-19 11:57:00,70.7,26.5,29.85,West,275,0.0,0.0,19,0.00,,---,0.04,VWS V12.07,2013-06-19 15:57:00,
2013-06-19 12:05:00,71.1,26.8,29.85,South,175,0.0,3.1,19,0.00,,---,0.04,VWS V12.07,2013-06-19 16:05:00,
2013-06-19 12:12:00,71.4,27.0,29.85,South,179,0.0,3.1,19,0.00,,---,0.04,VWS V12.07,2013-06-19 16:12:00,
2013-06-19 12:18:00,71.6,27.2,29.85,East,87,0.0,0.0,19,0.00,,---,0.04,VWS V12.07,2013-06-19 16:18:00,
2013-06-19 12:25:00,71.4,27.0,29.85,East,92,0.0,0.0,19,0.00,,---,0.04,VWS V12.07,2013-06-19 16:25:00,
2013-06-19 12:32:00,71.4,27.0,29.85,ENE,74,0.0,2.2,19,0.00,,---,0.04,VWS V12.07,2013-06-19 16:32:00,
2013-06-19 12:39:00,71.4,27.0,29.85,East,88,0.0,2.2,19,0.00,,---,0.04,VWS V12.07,2013-06-19 16:39:00,
2013-06-19 12:45:00,71.8,27.3,29.85,East,84,0.0,0.0,19,0.00,,---,0.04,VWS V12.07,2013-06-19 16:45:00,
2013-06-19 12:52:00,72.0,27.5,29.85,ENE,73,0.0,0.0,19,0.00,,---,0.04,VWS V12.07,2013-06-19 16:52:00,
2013-06-19 12:59:00,71.8,27.3,29.85,SSE,161,0.0,0.0,19,0.00,,---,0.04,VWS V12.07,2013-06-19 16:59:00,
2013-06-19 13:07:00,72.3,27.8,29.85,WNW,292,0.0,3.1,19,0.00,,---,0.04,VWS V12.07,2013-06-19 17:07:00,
2013-06-19 13:15:00,72.3,30.2,29.85,West,281,0.0,0.0,21,0.00,,---,0.04,VWS V12.07,2013-06-19 17:15:00,
2013-06-19 13:22:00,72.5,30.4,29.85,WNW,284,0.0,0.0,21,0.00,,---,0.04,VWS V12.07,2013-06-19 17:22:00,
2013-06-19 13:29:00,73.2,31.0,29.85,SSE,168,0.0,0.0,21,0.00,,---,0.04,VWS V12.07,2013-06-19 17:29:00,
2013-06-19 13:36:00,73.2,28.5,29.85,East,87,0.0,0.0,19,0.00,,---,0.04,VWS V12.07,2013-06-19 17:36:00,
2013-06-19 13:43:00,72.5,27.9,29.85,East,87,0.0,0.0,19,0.00,,---,0.04,VWS V12.07,2013-06-19 17:43:00,
2013-06-19 13:50:00,72.9,28.2,29.85,East,88,0.0,0.0,19,0.00,,---,0.04,VWS V12.07,2013-06-19 17:50:00,
2013-06-19 13:57:00,73.0,28.4,29.85,NNE,24,3.1,3.1,19,0.00,,---,0.04,VWS V12.07,2013-06-19 17:57:00,
2013-06-19 14:05:00,72.3,27.8,29.85,SE,126,0.0,6.3,19,0.00,,---,0.04,VWS V12.07,2013-06-19 18:05:00,
2013-06-19 14:12:00,71.4,27.0,29.85,East,79,0.0,6.3,19,0.00,,---,0.04,VWS V12.07,2013-06-19 18:12:00,
2013-06-19 14:19:00,70.3,26.2,29.85,East,95,0.0,2.7,19,0.00,,---,0.04,VWS V12.07,2013-06-19 18:19:00,
2013-06-19 14:26:00,69.8,25.7,29.85,East,90,3.1,4.9,19,0.00,,---,0.04,VWS V12.07,2013-06-19 18:26:00,
2013-06-19 14:34:00,69.8,25.7,29.85,East,96,0.0,5.4,19,0.00,,---,0.04,VWS V12.07,2013-06-19 18:34:00,
2013-06-19 14:41:00,70.2,26.0,29.85,ENE,67,0.0,5.4,19,0.00,,---,0.04,VWS V12.07,2013-06-19 18:41:00,
2013-06-19 14:49:00,70.3,26.2,29.85,ESE,103,2.2,5.4,19,0.00,,---,0.04,VWS V12.07,2013-06-19 18:49:00,
2013-06-19 14:56:00,70.9,26.6,29.85,ENE,65,0.0,5.4,19,0.00,,---,0.04,VWS V12.07,2013-06-19 18:56:00,
2013-06-19 15:02:00,70.9,26.6,29.85,East,97,0.0,3.6,19,0.00,,---,0.04,VWS V12.07,2013-06-19 19:02:00,
2013-06-19 15:09:00,70.2,26.0,29.85,East,84,0.0,3.6,19,0.00,,---,0.04,VWS V12.07,2013-06-19 19:09:00,
2013-06-19 15:16:00,69.8,25.7,29.85,East,87,0.0,5.4,19,0.00,,---,0.04,VWS V12.07,2013-06-19 19:16:00,
2013-06-19 15:23:00,69.3,26.5,29.85,East,84,0.0,5.4,20,0.00,,---,0.04,VWS V12.07,2013-06-19 19:23:00,
2013-06-19 15:31:00,68.9,26.2,29.88,SSE,149,2.2,2.7,20,0.00,,---,0.04,VWS V12.07,2013-06-19 19:31:00,
2013-06-19 15:38:00,69.1,26.4,29.88,SSE,155,4.9,8.1,20,0.00,,---,0.04,VWS V12.07,2013-06-19 19:38:00,
2013-06-19 15:45:00,69.3,26.5,29.88,ENE,70,0.0,0.0,20,0.00,,---,0.04,VWS V12.07,2013-06-19 19:45:00,
2013-06-19 15:53:00,69.8,25.7,29.88,ESE,113,2.7,3.6,19,0.00,,---,0.04,VWS V12.07,2013-06-19 19:53:00,
2013-06-19 16:01:00,70.7,26.5,29.88,ESE,105,0.0,4.0,19,0.00,,---,0.04,VWS V12.07,2013-06-19 20:01:00,
2013-06-19 16:09:00,70.5,26.3,29.88,WNW,299,0.0,4.9,19,0.00,,---,0.04,VWS V12.07,2013-06-19 20:09:00,
2013-06-19 16:16:00,71.4,27.0,29.88,SE,127,0.0,3.6,19,0.00,,---,0.04,VWS V12.07,2013-06-19 20:16:00,
2013-06-19 16:24:00,72.1,27.6,29.88,SE,144,0.0,6.3,19,0.00,,---,0.04,VWS V12.07,2013-06-19 20:24:00,
2013-06-19 16:31:00,71.8,27.3,29.88,ENE,72,0.0,0.0,19,0.00,,---,0.04,VWS V12.07,2013-06-19 20:31:00,
2013-06-19 16:37:00,71.2,26.9,29.88,East,83,0.0,4.0,19,0.00,,---,0.04,VWS V12.07,2013-06-19 20:37:00,
2013-06-19 16:44:00,71.2,26.9,29.88,ENE,77,0.0,0.0,19,0.00,,---,0.04,VWS V12.07,2013-06-19 20:44:00,
2013-06-19 16:50:00,71.4,27.0,29.88,East,91,0.0,4.0,19,0.00,,---,0.04,VWS V12.07,2013-06-19 20:50:00,
2013-06-19 16:58:00,71.6,27.2,29.88,SE,145,0.0,2.7,19,0.00,,---,0.04,VWS V12.07,2013-06-19 20:58:00,
2013-06-19 17:06:00,72.1,27.6,29.88,SE,142,2.2,4.9,19,0.00,,---,0.04,VWS V12.07,2013-06-19 21:06:00,
2013-06-19 17:14:00,72.1,27.6,29.88,SSE,149,0.0,2.2,19,0.00,,---,0.04,VWS V12.07,2013-06-19 21:14:00,
2013-06-19 17:21:00,71.8,27.3,29.88,ESE,112,0.0,5.8,19,0.00,,---,0.04,VWS V12.07,2013-06-19 21:21:00,
2013-06-19 17:29:00,71.8,27.3,29.88,SE,139,0.0,2.7,19,0.00,,---,0.04,VWS V12.07,2013-06-19 21:29:00,
2013-06-19 17:36:00,72.0,27.5,29.88,SE,137,0.0,2.7,19,0.00,,---,0.04,VWS V12.07,2013-06-19 21:36:00,
2013-06-19 17:43:00,71.8,27.3,29.88,SE,145,0.0,0.0,19,0.00,,---,0.04,VWS V12.07,2013-06-19 21:43:00,
2013-06-19 17:49:00,71.4,27.0,29.88,East,101,2.7,5.8,19,0.00,,---,0.04,VWS V12.07,2013-06-19 21:49:00,
2013-06-19 17:55:00,71.2,24.2,29.88,ESE,112,0.0,5.8,17,0.00,,---,0.04,VWS V12.07,2013-06-19 21:55:00,
2013-06-19 18:03:00,71.1,24.1,29.88,East,85,0.0,2.7,17,0.00,,---,0.04,VWS V12.07,2013-06-19 22:03:00,
2013-06-19 18:10:00,70.7,23.8,29.88,ENE,77,0.0,2.7,17,0.00,,---,0.04,VWS V12.07,2013-06-19 22:10:00,
2013-06-19 18:17:00,70.3,23.5,29.88,SE,128,0.0,5.4,17,0.00,,---,0.04,VWS V12.07,2013-06-19 22:17:00,
2013-06-19 18:25:00,70.3,23.5,29.88,East,97,0.0,5.4,17,0.00,,---,0.04,VWS V12.07,2013-06-19 22:25:00,
2013-06-19 18:33:00,70.3,23.5,29.88,East,97,0.0,0.0,17,0.00,,---,0.04,VWS V12.07,2013-06-19 22:33:00,
2013-06-19 18:40:00,70.2,23.4,29.88,East,91,0.0,0.0,17,0.00,,---,0.04,VWS V12.07,2013-06-19 22:40:00,
2013-06-19 18:48:00,69.8,23.1,29.88,ENE,75,0.0,0.0,17,0.00,,---,0.04,VWS V12.07,2013-06-19 22:48:00,
2013-06-19 18:55:00,69.8,23.1,29.88,ESE,105,0.0,3.6,17,0.00,,---,0.04,VWS V12.07,2013-06-19 22:55:00,
2013-06-19 19:03:00,70.0,23.2,29.88,ESE,112,0.0,4.9,17,0.00,,---,0.04,VWS V12.07,2013-06-19 23:03:00,
2013-06-19 19:10:00,69.8,25.7,29.88,SE,133,0.0,4.9,19,0.00,,---,0.04,VWS V12.07,2013-06-19 23:10:00,
2013-06-19 19:18:00,69.6,26.8,29.88,SE,133,0.0,0.0,20,0.00,,---,0.04,VWS V12.07,2013-06-19 23:18:00,
2013-06-19 19:26:00,69.3,26.5,29.88,SE,133,0.0,0.0,20,0.00,,---,0.04,VWS V12.07,2013-06-19 23:26:00,
2013-06-19 19:34:00,69.1,26.4,29.88,SE,143,0.0,3.6,20,0.00,,---,0.04,VWS V12.07,2013-06-19 23:34:00,
2013-06-19 19:40:00,68.9,26.2,29.91,SE,145,0.0,3.6,20,0.00,,---,0.04,VWS V12.07,2013-06-19 23:40:00,
2013-06-19 19:48:00,68.5,25.9,29.91,East,98,0.0,0.0,20,0.00,,---,0.04,VWS V12.07,2013-06-19 23:48:00,
2013-06-19 19:56:00,68.2,25.6,29.91,ESE,112,0.0,2.2,20,0.00,,---,0.04,VWS V12.07,2013-06-19 23:56:00,
2013-06-19 20:04:00,68.0,25.5,29.91,SE,133,0.0,4.9,20,0.00,,---,0.04,VWS V12.07,2013-06-20 00:04:00,
2013-06-19 20:10:00,67.8,25.3,29.91,SE,133,0.0,4.9,20,0.00,,---,0.04,VWS V12.07,2013-06-20 00:10:00,
2013-06-19 20:17:00,67.8,25.3,29.91,SE,139,0.0,3.6,20,0.00,,---,0.04,VWS V12.07,2013-06-20 00:17:00,
2013-06-19 20:25:00,67.6,25.2,29.91,SE,140,0.0,3.6,20,0.00,,---,0.04,VWS V12.07,2013-06-20 00:25:00,
2013-06-19 20:32:00,67.5,25.0,29.91,SE,140,0.0,0.0,20,0.00,,---,0.04,VWS V12.07,2013-06-20 00:32:00,
2013-06-19 20:40:00,67.3,24.9,29.91,SE,140,0.0,0.0,20,0.00,,---,0.04,VWS V12.07,2013-06-20 00:40:00,
2013-06-19 20:47:00,67.1,24.7,29.91,SE,140,0.0,0.0,20,0.00,,---,0.04,VWS V12.07,2013-06-20 00:47:00,
2013-06-19 20:54:00,67.1,24.7,29.94,SE,140,0.0,0.0,20,0.00,,---,0.04,VWS V12.07,2013-06-20 00:54:00,
2013-06-19 21:01:00,66.9,24.6,29.94,SE,139,0.0,0.0,20,0.00,,---,0.04,VWS V12.07,2013-06-20 01:01:00,
2013-06-19 21:08:00,66.7,24.4,29.94,SE,139,0.0,0.0,20,0.00,,---,0.04,VWS V12.07,2013-06-20 01:08:00,
2013-06-19 21:16:00,66.6,24.3,29.94,SE,138,0.0,0.0,20,0.00,,---,0.04,VWS V12.07,2013-06-20 01:16:00,
2013-06-19 21:24:00,66.4,26.4,29.94,SE,138,0.0,0.0,22,0.00,,---,0.04,VWS V12.07,2013-06-20 01:24:00,
2013-06-19 21:32:00,66.0,27.2,29.94,SE,138,0.0,0.0,23,0.00,,---,0.04,VWS V12.07,2013-06-20 01:32:00,
2013-06-19 21:40:00,65.7,26.9,29.97,SE,139,0.0,0.0,23,0.00,,---,0.04,VWS V12.07,2013-06-20 01:40:00,
2013-06-19 21:48:00,65.3,26.6,29.97,SE,138,0.0,0.0,23,0.00,,---,0.04,VWS V12.07,2013-06-20 01:48:00,
2013-06-19 21:54:00,65.1,26.4,29.97,SE,138,0.0,0.0,23,0.00,,---,0.04,VWS V12.07,2013-06-20 01:54:00,
2013-06-19 22:00:00,64.8,26.1,29.97,SE,138,0.0,0.0,23,0.00,,---,0.04,VWS V12.07,2013-06-20 02:00:00,
2013-06-19 22:08:00,64.4,26.9,29.97,SE,139,0.0,0.0,24,0.00,,---,0.04,VWS V12.07,2013-06-20 02:08:00,
2013-06-19 22:15:00,64.2,26.7,29.97,SE,139,0.0,0.0,24,0.00,,---,0.04,VWS V12.07,2013-06-20 02:15:00,
2013-06-19 22:22:00,64.0,26.5,29.97,SE,138,0.0,0.0,24,0.00,,---,0.04,VWS V12.07,2013-06-20 02:22:00,
2013-06-19 22:29:00,64.0,26.5,29.97,SE,139,0.0,0.0,24,0.00,,---,0.04,VWS V12.07,2013-06-20 02:29:00,
2013-06-19 22:37:00,64.2,26.7,29.97,SE,146,0.0,0.0,24,0.00,,---,0.04,VWS V12.07,2013-06-20 02:37:00,
2013-06-19 22:44:00,64.2,26.7,29.97,SE,145,0.0,0.0,24,0.00,,---,0.04,VWS V12.07,2013-06-20 02:44:00,
2013-06-19 22:50:00,64.4,26.9,29.97,SE,146,0.0,0.0,24,0.00,,---,0.04,VWS V12.07,2013-06-20 02:50:00,
2013-06-19 22:57:00,64.4,26.9,29.97,SE,145,0.0,0.0,24,0.00,,---,0.04,VWS V12.07,2013-06-20 02:57:00,
2013-06-19 23:04:00,64.4,26.9,29.97,SE,145,0.0,0.0,24,0.00,,---,0.04,VWS V12.07,2013-06-20 03:04:00,
2013-06-19 23:10:00,64.2,27.7,29.97,SE,146,0.0,0.0,25,0.00,,---,0.04,VWS V12.07,2013-06-20 03:10:00,
2013-06-19 23:18:00,63.9,27.4,29.97,SE,145,0.0,0.0,25,0.00,,---,0.04,VWS V12.07,2013-06-20 03:18:00,
2013-06-19 23:25:00,63.3,26.9,29.97,SE,145,0.0,0.0,25,0.00,,---,0.04,VWS V12.07,2013-06-20 03:25:00,
2013-06-19 23:32:00,63.1,26.8,29.97,SE,145,0.0,0.0,25,0.00,,---,0.04,VWS V12.07,2013-06-20 03:32:00,
2013-06-19 23:38:00,63.0,27.6,29.97,SE,146,0.0,0.0,26,0.00,,---,0.04,VWS V12.07,2013-06-20 03:38:00,
2013-06-19 23:44:00,63.0,27.6,29.97,SE,145,0.0,0.0,26,0.00,,---,0.04,VWS V12.07,2013-06-20 03:44:00,
2013-06-19 23:50:00,63.1,27.7,29.97,SE,145,0.0,0.0,26,0.00,,---,0.04,VWS V12.07,2013-06-20 03:50:00,
2013-06-19 23:57:00,63.0,27.6,29.97,SE,146,0.0,0.0,26,0.00,,---,0.04,VWS V12.07,2013-06-20 03:57:00,